Mount Morris, IL

2:14 AM CST on December 22, 2014 (GMT -0600)
Lost Lake Ogle County, Illinois | Change Station
CLOSE
Current Station
Personal Weather Station
Location: Dixon, IL
Elevation: 761 ft
Nearby Weather Stations

Elev 761 ft 41.91 °N, 89.35 °W | Updated 2 seconds ago

Overcast
Overcast
32.6 °F
Feels Like 33 °F
N
1.0
Wind Variable Wind from SW
Gusts 5.0 mph

Today
High -- | Low -- °F
--% Chance of Precip.
Yesterday
High -- | Low -- °F
Precip. -- in
7:23 AM 4:29 PM
New Moon, 0% visible
Pressure 29.93 in
Visibility 5.0 miles
Clouds Scattered Clouds 1200 ft
Overcast 2900 ft
Windchill 33 °F
Dew Point 31 °F
Humidity 95%
Rainfall 0.00 in
Snow Depth Not available.
UV 0 out of 12
Pollen .10 out of 12
Air Quality Not available.
Flu Activity Not available.
METAR KFEP 220755Z AUTO 15011KT 5SM BR SCT012 OVC029 01/00 A2993 RMK AO2 T00051005

More Conditions Fewer Conditions

Pressure 29.93 in
Visibility 5.0 miles
Clouds Scattered Clouds 1200 ft
Overcast 2900 ft
Windchill 33 °F
Dew Point 31 °F
Humidity 95%
Rainfall 0.00 in
Snow Depth Not available.
UV 0 out of 12
Pollen .10 out of 12
Air Quality Not available.
Flu Activity Not available.
METAR KFEP 220755Z AUTO 15011KT 5SM BR SCT012 OVC029 01/00 A2993 RMK AO2 T00051005

More Conditions Fewer Conditions

10-Day Weather Forecast

Almanac

Astronomy

Dec. 22, 2014 Rise Set
Actual Time
Civil Twilight
Nautical Twilight
Astronomical Twilight
Moon
Length of Visible Light
Length of Day
Tomorrow will be .
, % of the Moon is Illuminated

Today's Extremes

State Highs State Lows

Community

WunderPhotos

Upload Photos

1,779,564 photos uploaded!

WunderBlogs® & News

Nearby

Air Quality

  Air Quality AQ Index Pollutant
Not available.

Snow Depth

Station Depth Elevation

Earthquake Activity

City Distance Mag. Time & Date
Minimum magnitude displayed is 2.5.

Coastal Water Temperatures

Place Temperature

Nearby Weather Stations